Maersk Peary — WHKM — position and weather

sailwx.info

Track history (hours):
 
Tides and Currents Weather Stations Pressure Air Temp Water Temp Dewpoint Dewpoint Depression Visibility Wind Speed Wind Dir Waves Ship Positions

Maersk Peary

Owner: Maersk Line, Limited, Norfolk, VA. More information available from US FCC via Universal Licensing System and Coast Guard Vessel Documentation Center.

Last reported at 2017-Jun-21 07:04 UTC. Time now 2017-Jun-26 19:07 UTC.
Position N 37°02' E 023°54'.

Length 180 m; draft 8.1 m.

Type: Ship. MMSI: 368236000.

Date/timePositionNaut miles runAvg speedWind from/ knotsBaromVisibWave heightAir tempDewpointWater temp
2017-Jun-21 07:04N 37°02' E 023°54'1 5.9
2017-Jun-21 06:56N 37°02' E 023°54'3 6.0
2017-Jun-21 06:30N 37°05' E 023°53'3 5.9
2017-Jun-21 06:00N 37°08' E 023°52'3 6.0
2017-Jun-21 05:31N 37°11' E 023°51'3 6.1
2017-Jun-21 05:01N 37°14' E 023°51'3 5.7
2017-Jun-21 04:31N 37°16' E 023°50'4 8.5
2017-Jun-21 04:00N 37°20' E 023°49'612.2
2017-Jun-21 03:30N 37°26' E 023°46'611.9
2017-Jun-21 03:01N 37°32' E 023°44'611.9
2017-Jun-21 02:31N 37°38' E 023°42'612.0
2017-Jun-21 02:01N 37°43' E 023°40'611.9
2017-Jun-21 01:31N 37°48' E 023°36'611.6
2017-Jun-21 01:00N 37°50' E 023°29'611.7
2017-Jun-21 00:31N 37°51' E 023°22'611.8
2017-Jun-21 00:01N 37°52' E 023°14'611.8
2017-Jun-20 23:30N 37°54' E 023°07'2 3.7
2017-Jun-20 23:00N 37°55' E 023°05'0 0.0
2017-Jun-19 11:38N 37°55' E 023°05'0 0.5
2017-Jun-19 11:29N 37°55' E 023°05'1 1.0
2017-Jun-19 10:57N 37°55' E 023°06'1 1.4
2017-Jun-19 10:30N 37°54' E 023°05'1 0.1
2017-Jun-19 01:01N 37°54' E 023°04'0 0.1
2017-Jun-19 00:58N 37°54' E 023°04'0 0.0
2017-Jun-19 00:28N 37°54' E 023°04'0 0.0
2017-Jun-18 23:28N 37°54' E 023°04'0 0.0
2017-Jun-18 10:49N 37°54' E 023°04'0 0.0
2017-Jun-18 10:28N 37°54' E 023°04'0 0.0
2017-Jun-18 09:58N 37°54' E 023°04'0 0.0
2017-Jun-18 08:49N 37°54' E 023°04'0 0.0
2017-Jun-18 07:01N 37°54' E 023°04'0 0.2
2017-Jun-18 06:58N 37°54' E 023°04'0 0.1
2017-Jun-18 06:19N 37°54' E 023°04'0 0.0
2017-Jun-18 05:58N 37°54' E 023°04'0 0.1
2017-Jun-18 04:55N 37°54' E 023°04'0 0.1
2017-Jun-18 04:22N 37°54' E 023°04'0 0.1
2017-Jun-18 03:43N 37°54' E 023°04'0 0.0
2017-Jun-17 22:51N 37°54' E 023°04'0 0.1
2017-Jun-17 22:24N 37°54' E 023°04'0 0.0
2017-Jun-17 21:18N 37°54' E 023°04'0 0.0
2017-Jun-17 21:00N 37°54' E 023°04'0 0.0
2017-Jun-17 19:51N 37°54' E 023°04'0 0.0
2017-Jun-17 19:27N 37°54' E 023°04'0 0.0
2017-Jun-17 18:51N 37°54' E 023°04'0 0.0
2017-Jun-17 18:21N 37°54' E 023°04'0 0.0
2017-Jun-17 17:57N 37°54' E 023°04'0 0.0
2017-Jun-17 17:15N 37°54' E 023°04'0 0.1
2017-Jun-17 16:54N 37°54' E 023°04'0 0.0
2017-Jun-17 15:30N 37°54' E 023°04'0 0.0
2017-Jun-17 13:30N 37°54' E 023°04'0 0.0
2017-Jun-17 12:57N 37°54' E 023°04'0 0.0
2017-Jun-17 12:18N 37°54' E 023°04'0 0.0
2017-Jun-17 11:51N 37°54' E 023°04'0 0.1
2017-Jun-17 11:30N 37°54' E 023°04'0 0.1
2017-Jun-17 10:54N 37°54' E 023°04'0 0.2
2017-Jun-17 10:24N 37°54' E 023°04'0 0.0
2017-Jun-16 20:21N 37°54' E 023°04'0 0.0
2017-Jun-16 19:24N 37°54' E 023°04'0 0.0
2017-Jun-16 18:57N 37°54' E 023°04'0 0.0
2017-Jun-16 18:30N 37°54' E 023°04'0 0.0
2017-Jun-16 17:15N 37°54' E 023°04'0 0.0
2017-Jun-16 15:48N 37°54' E 023°04'0 0.0
2017-Jun-16 14:18N 37°54' E 023°04'0 0.0
2017-Jun-16 11:23N 37°54' E 023°04'0 0.0
2017-Jun-16 09:56N 37°54' E 023°04'0 0.0
2017-Jun-16 09:23N 37°54' E 023°04'0 0.0
2017-Jun-16 08:59N 37°54' E 023°04'0 0.0
2017-Jun-16 08:26N 37°54' E 023°04'0 0.0
2017-Jun-16 07:59N 37°54' E 023°04'0 0.1
2017-Jun-16 07:26N 37°54' E 023°04'0 0.0
2017-Jun-16 04:11N 37°54' E 023°04'0 0.0
2017-Jun-16 03:59N 37°54' E 023°04'0 0.0
2017-Jun-16 02:56N 37°54' E 023°04'0 0.0
2017-Jun-16 01:23N 37°54' E 023°04'0 0.0
2017-Jun-16 00:53N 37°54' E 023°04'0 0.0
2017-Jun-16 00:11N 37°54' E 023°04'0 0.0
2017-Jun-15 23:59N 37°54' E 023°04'0 0.0
2017-Jun-15 23:23N 37°54' E 023°04'0 0.1
2017-Jun-15 22:59N 37°54' E 023°04'0 0.0
2017-Jun-15 21:14N 37°54' E 023°04'0 0.1
2017-Jun-15 20:59N 37°54' E 023°04'0 0.0
2017-Jun-15 20:29N 37°54' E 023°04'0 0.0
2017-Jun-15 19:59N 37°54' E 023°04'0 0.0
2017-Jun-15 19:29N 37°54' E 023°04'0 0.0
2017-Jun-15 18:59N 37°54' E 023°04'0 0.1
2017-Jun-15 18:23N 37°54' E 023°04'0 0.0
2017-Jun-15 17:59N 37°54' E 023°04'0 0.0
2017-Jun-15 17:29N 37°54' E 023°04'0 0.0
2017-Jun-15 16:59N 37°54' E 023°04'0 0.0
2017-Jun-15 16:29N 37°54' E 023°04'0 0.0
2017-Jun-15 15:56N 37°54' E 023°04'0 0.0
2017-Jun-15 15:29N 37°54' E 023°04'0 0.0
2017-Jun-15 14:53N 37°54' E 023°04'0 0.0
2017-Jun-15 14:29N 37°54' E 023°04'0 0.0
2017-Jun-15 13:29N 37°54' E 023°04'0 0.0
2017-Jun-15 12:59N 37°54' E 023°04'0 0.1
2017-Jun-15 12:26N 37°54' E 023°04'0 0.3
2017-Jun-15 11:59N 37°54' E 023°04'0 0.0
2017-Jun-15 01:53N 37°54' E 023°04'0 0.1
2017-Jun-15 01:23N 37°54' E 023°04'0 0.0
2017-Jun-15 00:29N 37°54' E 023°04'0 0.1
2017-Jun-14 23:53N 37°54' E 023°04'0 0.1
2017-Jun-14 23:14N 37°54' E 023°04'0 0.1
2017-Jun-14 22:53N 37°54' E 023°04'0 0.0
2017-Jun-14 21:40N 37°54' E 023°04'0 0.0
2017-Jun-14 21:16N 37°54' E 023°04'0 0.1
2017-Jun-14 20:58N 37°54' E 023°04'0 0.0
2017-Jun-14 20:19N 37°54' E 023°04'0 0.0
2017-Jun-14 19:58N 37°54' E 023°04'0 0.0
2017-Jun-14 19:16N 37°54' E 023°04'0 0.1
2017-Jun-14 18:58N 37°54' E 023°04'0 0.0
2017-Jun-14 18:22N 37°54' E 023°04'0 0.0
2017-Jun-14 17:49N 37°54' E 023°04'0 0.1
2017-Jun-14 17:28N 37°54' E 023°04'0 0.0
2017-Jun-14 16:58N 37°54' E 023°04'0 0.0
2017-Jun-14 16:28N 37°54' E 023°04'0 0.0
2017-Jun-14 15:37N 37°54' E 023°04'0 0.0
2017-Jun-14 15:28N 37°54' E 023°04'0 0.0
2017-Jun-14 14:34N 37°54' E 023°04'0 0.1
2017-Jun-14 13:58N 37°54' E 023°04'0 0.0
2017-Jun-14 13:28N 37°54' E 023°04'0 0.2
2017-Jun-14 12:58N 37°54' E 023°04'0 0.4
2017-Jun-14 12:30N 37°54' E 023°04'3 6.1
2017-Jun-14 11:58N 37°53' E 023°08'612.8
2017-Jun-14 11:31N 37°52' E 023°15'714.4
2017-Jun-14 11:00N 37°51' E 023°24'612.4
2017-Jun-14 10:30N 37°54' E 023°31'2 3.4
2017-Jun-14 09:59N 37°55' E 023°33'0 0.0
2017-Jun-14 09:29N 37°55' E 023°33'0 0.2
2017-Jun-14 08:59N 37°55' E 023°33'0 0.2
2017-Jun-14 08:29N 37°55' E 023°33'0 0.1
2017-Jun-14 07:59N 37°55' E 023°33'0 0.2
2017-Jun-14 07:29N 37°55' E 023°33'0 0.0
2017-Jun-14 06:59N 37°55' E 023°33'0 0.1
2017-Jun-14 06:29N 37°55' E 023°33'0 0.0
2017-Jun-14 05:59N 37°55' E 023°33'0 0.0
2017-Jun-14 05:29N 37°55' E 023°33'0 0.1
2017-Jun-14 04:59N 37°55' E 023°33'0 0.0
2017-Jun-14 04:29N 37°55' E 023°33'0 0.0
2017-Jun-14 03:59N 37°55' E 023°33'0 0.0
2017-Jun-14 03:29N 37°55' E 023°33'0 0.0
2017-Jun-14 02:59N 37°55' E 023°33'0 0.0
2017-Jun-14 02:29N 37°55' E 023°33'0 0.1
2017-Jun-14 01:59N 37°55' E 023°33'0 0.1
2017-Jun-14 01:29N 37°55' E 023°33'0 0.0
2017-Jun-14 00:59N 37°55' E 023°33'0 0.0
2017-Jun-14 00:29N 37°55' E 023°33'0 0.1
2017-Jun-13 23:59N 37°55' E 023°33'0 0.1
2017-Jun-13 23:29N 37°55' E 023°33'0 0.0
2017-Jun-13 22:59N 37°55' E 023°33'0 0.0
2017-Jun-13 22:29N 37°55' E 023°33'0 0.0
2017-Jun-13 21:59N 37°55' E 023°33'0 0.0
2017-Jun-13 21:29N 37°55' E 023°33'0 0.0
2017-Jun-13 20:59N 37°55' E 023°33'0 0.0
2017-Jun-13 20:29N 37°55' E 023°33'0 0.1
2017-Jun-13 19:59N 37°55' E 023°33'0 0.0
2017-Jun-13 19:29N 37°55' E 023°33'0 0.0
2017-Jun-13 18:59N 37°55' E 023°33'0 0.1
2017-Jun-13 18:29N 37°55' E 023°33'0 0.0
2017-Jun-13 17:59N 37°55' E 023°33'0 0.1
2017-Jun-13 17:29N 37°55' E 023°33'0 0.2
2017-Jun-13 16:59N 37°55' E 023°33'0 0.1
2017-Jun-13 16:29N 37°55' E 023°33'0 0.0
2017-Jun-13 15:59N 37°55' E 023°33'0 0.0
2017-Jun-13 15:29N 37°55' E 023°33'0 0.0
2017-Jun-13 14:59N 37°55' E 023°33'0 0.0
2017-Jun-13 13:59N 37°55' E 023°33'0 0.0
2017-Jun-13 13:29N 37°55' E 023°33'0 0.0
2017-Jun-13 12:59N 37°55' E 023°33'0 0.0
2017-Jun-13 12:29N 37°55' E 023°33'0 0.0
2017-Jun-13 11:59N 37°55' E 023°33'0 0.0
2017-Jun-13 11:29N 37°55' E 023°33'0 0.0
2017-Jun-13 10:59N 37°55' E 023°33'0 0.0
2017-Jun-13 10:29N 37°55' E 023°33'0 0.0
2017-Jun-13 09:59N 37°55' E 023°33'0 0.0
2017-Jun-13 09:29N 37°55' E 023°33'0 0.1
2017-Jun-13 08:59N 37°55' E 023°33'0 0.0
2017-Jun-13 08:29N 37°55' E 023°33'0 0.0
2017-Jun-13 07:59N 37°55' E 023°33'0 0.0
2017-Jun-13 07:29N 37°55' E 023°33'0 0.0
2017-Jun-13 06:59N 37°55' E 023°33'0 0.0
2017-Jun-13 06:29N 37°55' E 023°33'0 0.0
2017-Jun-13 05:59N 37°55' E 023°33'0 0.0
2017-Jun-13 05:29N 37°55' E 023°33'0 0.0
2017-Jun-13 04:58N 37°55' E 023°33'0 0.1
2017-Jun-13 04:28N 37°55' E 023°33'0 0.0
2017-Jun-13 03:58N 37°55' E 023°33'0 0.0
2017-Jun-13 03:28N 37°55' E 023°33'0 0.0
2017-Jun-13 02:58N 37°55' E 023°33'0 0.0
2017-Jun-13 02:28N 37°55' E 023°33'0 0.0
2017-Jun-13 01:58N 37°55' E 023°33'0 0.0
2017-Jun-13 01:28N 37°55' E 023°33'0 0.0
2017-Jun-13 00:58N 37°55' E 023°33'0 0.0
2017-Jun-13 00:28N 37°55' E 023°33'0 0.0
2017-Jun-12 23:58N 37°55' E 023°33'0 0.0
2017-Jun-12 23:28N 37°55' E 023°33'0 0.0
2017-Jun-12 22:58N 37°55' E 023°33'0 0.0
2017-Jun-12 22:28N 37°55' E 023°33'0 0.0
2017-Jun-12 21:58N 37°55' E 023°33'0 0.0
2017-Jun-12 21:28N 37°55' E 023°33'0 0.0
2017-Jun-12 20:58N 37°55' E 023°33'0 0.0
2017-Jun-12 20:25N 37°55' E 023°33'0 0.0
2017-Jun-12 19:58N 37°55' E 023°33'0 0.0
2017-Jun-12 19:28N 37°55' E 023°33'0 0.0
2017-Jun-12 18:58N 37°55' E 023°33'0 0.0
2017-Jun-12 18:28N 37°55' E 023°33'0 0.0
2017-Jun-12 17:58N 37°55' E 023°33'0 0.0
2017-Jun-12 17:28N 37°55' E 023°33'0 0.0
2017-Jun-12 16:58N 37°55' E 023°33'0 0.0
2017-Jun-12 16:28N 37°55' E 023°33'0 0.0
2017-Jun-12 15:58N 37°55' E 023°33'0 0.0
2017-Jun-12 15:28N 37°55' E 023°33'0 0.0
2017-Jun-12 14:58N 37°55' E 023°33'0 0.0
2017-Jun-12 14:28N 37°55' E 023°33'0 0.0
2017-Jun-12 13:28N 37°55' E 023°33'0 0.0
2017-Jun-12 12:58N 37°55' E 023°33'0 0.0
2017-Jun-12 12:28N 37°55' E 023°33'0 0.0
2017-Jun-12 11:58N 37°55' E 023°33'0 0.0
2017-Jun-12 11:28N 37°55' E 023°33'0 0.0
2017-Jun-12 10:58N 37°55' E 023°33'0 0.0
2017-Jun-12 10:28N 37°55' E 023°33'0 0.0
2017-Jun-12 09:58N 37°55' E 023°33'0 0.0
2017-Jun-12 09:28N 37°55' E 023°33'0 0.0
2017-Jun-12 08:58N 37°55' E 023°33'0 0.0
2017-Jun-12 08:28N 37°55' E 023°33'0 0.0
2017-Jun-12 07:58N 37°55' E 023°33'0 0.0
2017-Jun-12 07:28N 37°55' E 023°33'0 0.0
2017-Jun-12 06:58N 37°55' E 023°33'0 0.0
2017-Jun-12 06:28N 37°55' E 023°33'0 0.0
2017-Jun-12 05:58N 37°55' E 023°33'0 0.0
2017-Jun-12 05:28N 37°55' E 023°33'0 0.0
2017-Jun-12 04:58N 37°55' E 023°33'0 0.0
2017-Jun-12 04:28N 37°55' E 023°33'0 0.0
2017-Jun-12 03:58N 37°55' E 023°33'0 0.0
2017-Jun-12 03:28N 37°55' E 023°33'0 0.0
2017-Jun-12 02:58N 37°55' E 023°33'0 0.0
2017-Jun-12 02:28N 37°55' E 023°33'0 0.0
2017-Jun-12 01:58N 37°55' E 023°33'0 0.0
2017-Jun-12 01:28N 37°55' E 023°33'0 0.0
2017-Jun-12 00:58N 37°55' E 023°33'0 0.0
2017-Jun-12 00:28N 37°55' E 023°33'0 0.0
2017-Jun-11 23:58N 37°55' E 023°33'0 0.0
2017-Jun-11 23:28N 37°55' E 023°33'0 0.0
2017-Jun-11 22:58N 37°55' E 023°33'0 0.0
2017-Jun-11 22:28N 37°55' E 023°33'0 0.0
2017-Jun-11 21:58N 37°55' E 023°33'0 0.0
2017-Jun-11 21:28N 37°55' E 023°33'0 0.0
2017-Jun-11 20:58N 37°55' E 023°33'0 0.0
2017-Jun-11 20:28N 37°55' E 023°33'0 0.0
2017-Jun-11 19:58N 37°55' E 023°33'0 0.0
2017-Jun-11 19:28N 37°55' E 023°33'0 0.0
2017-Jun-11 18:58N 37°55' E 023°33'0 0.3
2017-Jun-11 18:28N 37°55' E 023°33'0 0.2
2017-Jun-11 17:58N 37°55' E 023°33'0 0.1
2017-Jun-11 17:28N 37°55' E 023°33'0 0.0
2017-Jun-11 16:58N 37°55' E 023°33'0 0.1
2017-Jun-11 16:31N 37°55' E 023°33'0 0.0
2017-Jun-11 16:01N 37°55' E 023°33'0 0.1
2017-Jun-11 15:27N 37°55' E 023°33'0 0.2
2017-Jun-11 15:00N 37°55' E 023°33'0 0.0
2017-Jun-11 14:00N 37°55' E 023°33'0 0.0
2017-Jun-11 13:30N 37°55' E 023°33'0 0.0
2017-Jun-11 13:00N 37°55' E 023°33'0 0.0
2017-Jun-11 12:30N 37°55' E 023°33'0 0.0
2017-Jun-11 12:00N 37°55' E 023°33'0 0.0
2017-Jun-11 11:30N 37°55' E 023°33'0 0.0
2017-Jun-11 11:00N 37°55' E 023°33'0 0.0
2017-Jun-11 10:30N 37°55' E 023°33'0 0.0
2017-Jun-11 10:00N 37°55' E 023°33'0 0.1
2017-Jun-11 09:30N 37°55' E 023°33'0 0.0
2017-Jun-11 09:00N 37°55' E 023°33'0 0.1
2017-Jun-11 08:30N 37°55' E 023°33'0 0.1
2017-Jun-11 08:00N 37°55' E 023°33'0 0.1
2017-Jun-11 07:30N 37°55' E 023°33'  
Track history (hours):
 
Tides and Currents Weather Stations Pressure Air Temp Water Temp Dewpoint Dewpoint Depression Visibility Wind Speed Wind Dir Waves Ship Positions

Maersk Peary

Owner: Maersk Line, Limited, Norfolk, VA. More information available from US FCC via Universal Licensing System and Coast Guard Vessel Documentation Center.

Last reported at 2017-Jun-21 07:04 UTC. Time now 2017-Jun-26 19:07 UTC.
Position N 37°02' E 023°54'.

Length 180 m; draft 8.1 m.

Type: Ship. MMSI: 368236000.

Date/timePositionNaut miles runAvg speedWind from/ knotsBaromVisibWave heightAir tempDewpointWater temp
2017-Jun-21 07:04N 37°02' E 023°54'1 5.9
2017-Jun-21 06:56N 37°02' E 023°54'3 6.0
2017-Jun-21 06:30N 37°05' E 023°53'3 5.9
2017-Jun-21 06:00N 37°08' E 023°52'3 6.0
2017-Jun-21 05:31N 37°11' E 023°51'3 6.1
2017-Jun-21 05:01N 37°14' E 023°51'3 5.7
2017-Jun-21 04:31N 37°16' E 023°50'4 8.5
2017-Jun-21 04:00N 37°20' E 023°49'612.2
2017-Jun-21 03:30N 37°26' E 023°46'611.9
2017-Jun-21 03:01N 37°32' E 023°44'611.9
2017-Jun-21 02:31N 37°38' E 023°42'612.0
2017-Jun-21 02:01N 37°43' E 023°40'611.9
2017-Jun-21 01:31N 37°48' E 023°36'611.6
2017-Jun-21 01:00N 37°50' E 023°29'611.7
2017-Jun-21 00:31N 37°51' E 023°22'611.8
2017-Jun-21 00:01N 37°52' E 023°14'611.8
2017-Jun-20 23:30N 37°54' E 023°07'2 3.7
2017-Jun-20 23:00N 37°55' E 023°05'0 0.0
2017-Jun-19 11:38N 37°55' E 023°05'0 0.5
2017-Jun-19 11:29N 37°55' E 023°05'1 1.0
2017-Jun-19 10:57N 37°55' E 023°06'1 1.4
2017-Jun-19 10:30N 37°54' E 023°05'1 0.1
2017-Jun-19 01:01N 37°54' E 023°04'0 0.1
2017-Jun-19 00:58N 37°54' E 023°04'0 0.0
2017-Jun-19 00:28N 37°54' E 023°04'0 0.0
2017-Jun-18 23:28N 37°54' E 023°04'0 0.0
2017-Jun-18 10:49N 37°54' E 023°04'0 0.0
2017-Jun-18 10:28N 37°54' E 023°04'0 0.0
2017-Jun-18 09:58N 37°54' E 023°04'0 0.0
2017-Jun-18 08:49N 37°54' E 023°04'0 0.0
2017-Jun-18 07:01N 37°54' E 023°04'0 0.2
2017-Jun-18 06:58N 37°54' E 023°04'0 0.1
2017-Jun-18 06:19N 37°54' E 023°04'0 0.0
2017-Jun-18 05:58N 37°54' E 023°04'0 0.1
2017-Jun-18 04:55N 37°54' E 023°04'0 0.1
2017-Jun-18 04:22N 37°54' E 023°04'0 0.1
2017-Jun-18 03:43N 37°54' E 023°04'0 0.0
2017-Jun-17 22:51N 37°54' E 023°04'0 0.1
2017-Jun-17 22:24N 37°54' E 023°04'0 0.0
2017-Jun-17 21:18N 37°54' E 023°04'0 0.0
2017-Jun-17 21:00N 37°54' E 023°04'0 0.0
2017-Jun-17 19:51N 37°54' E 023°04'0 0.0
2017-Jun-17 19:27N 37°54' E 023°04'0 0.0
2017-Jun-17 18:51N 37°54' E 023°04'0 0.0
2017-Jun-17 18:21N 37°54' E 023°04'0 0.0
2017-Jun-17 17:57N 37°54' E 023°04'0 0.0
2017-Jun-17 17:15N 37°54' E 023°04'0 0.1
2017-Jun-17 16:54N 37°54' E 023°04'0 0.0
2017-Jun-17 15:30N 37°54' E 023°04'0 0.0
2017-Jun-17 13:30N 37°54' E 023°04'0 0.0
2017-Jun-17 12:57N 37°54' E 023°04'0 0.0
2017-Jun-17 12:18N 37°54' E 023°04'0 0.0
2017-Jun-17 11:51N 37°54' E 023°04'0 0.1
2017-Jun-17 11:30N 37°54' E 023°04'0 0.1
2017-Jun-17 10:54N 37°54' E 023°04'0 0.2
2017-Jun-17 10:24N 37°54' E 023°04'0 0.0
2017-Jun-16 20:21N 37°54' E 023°04'0 0.0
2017-Jun-16 19:24N 37°54' E 023°04'0 0.0
2017-Jun-16 18:57N 37°54' E 023°04'0 0.0
2017-Jun-16 18:30N 37°54' E 023°04'0 0.0
2017-Jun-16 17:15N 37°54' E 023°04'0 0.0
2017-Jun-16 15:48N 37°54' E 023°04'0 0.0
2017-Jun-16 14:18N 37°54' E 023°04'0 0.0
2017-Jun-16 11:23N 37°54' E 023°04'0 0.0
2017-Jun-16 09:56N 37°54' E 023°04'0 0.0
2017-Jun-16 09:23N 37°54' E 023°04'0 0.0
2017-Jun-16 08:59N 37°54' E 023°04'0 0.0
2017-Jun-16 08:26N 37°54' E 023°04'0 0.0
2017-Jun-16 07:59N 37°54' E 023°04'0 0.1
2017-Jun-16 07:26N 37°54' E 023°04'0 0.0
2017-Jun-16 04:11N 37°54' E 023°04'0 0.0
2017-Jun-16 03:59N 37°54' E 023°04'0 0.0
2017-Jun-16 02:56N 37°54' E 023°04'0 0.0
2017-Jun-16 01:23N 37°54' E 023°04'0 0.0
2017-Jun-16 00:53N 37°54' E 023°04'0 0.0
2017-Jun-16 00:11N 37°54' E 023°04'0 0.0
2017-Jun-15 23:59N 37°54' E 023°04'0 0.0
2017-Jun-15 23:23N 37°54' E 023°04'0 0.1
2017-Jun-15 22:59N 37°54' E 023°04'0 0.0
2017-Jun-15 21:14N 37°54' E 023°04'0 0.1
2017-Jun-15 20:59N 37°54' E 023°04'0 0.0
2017-Jun-15 20:29N 37°54' E 023°04'0 0.0
2017-Jun-15 19:59N 37°54' E 023°04'0 0.0
2017-Jun-15 19:29N 37°54' E 023°04'0 0.0
2017-Jun-15 18:59N 37°54' E 023°04'0 0.1
2017-Jun-15 18:23N 37°54' E 023°04'0 0.0
2017-Jun-15 17:59N 37°54' E 023°04'0 0.0
2017-Jun-15 17:29N 37°54' E 023°04'0 0.0
2017-Jun-15 16:59N 37°54' E 023°04'0 0.0
2017-Jun-15 16:29N 37°54' E 023°04'0 0.0
2017-Jun-15 15:56N 37°54' E 023°04'0 0.0
2017-Jun-15 15:29N 37°54' E 023°04'0 0.0
2017-Jun-15 14:53N 37°54' E 023°04'0 0.0
2017-Jun-15 14:29N 37°54' E 023°04'0 0.0
2017-Jun-15 13:29N 37°54' E 023°04'0 0.0
2017-Jun-15 12:59N 37°54' E 023°04'0 0.1
2017-Jun-15 12:26N 37°54' E 023°04'0 0.3
2017-Jun-15 11:59N 37°54' E 023°04'0 0.0
2017-Jun-15 01:53N 37°54' E 023°04'0 0.1
2017-Jun-15 01:23N 37°54' E 023°04'0 0.0
2017-Jun-15 00:29N 37°54' E 023°04'0 0.1
2017-Jun-14 23:53N 37°54' E 023°04'0 0.1
2017-Jun-14 23:14N 37°54' E 023°04'0 0.1
2017-Jun-14 22:53N 37°54' E 023°04'0 0.0
2017-Jun-14 21:40N 37°54' E 023°04'0 0.0
2017-Jun-14 21:16N 37°54' E 023°04'0 0.1
2017-Jun-14 20:58N 37°54' E 023°04'0 0.0
2017-Jun-14 20:19N 37°54' E 023°04'0 0.0
2017-Jun-14 19:58N 37°54' E 023°04'0 0.0
2017-Jun-14 19:16N 37°54' E 023°04'0 0.1
2017-Jun-14 18:58N 37°54' E 023°04'0 0.0
2017-Jun-14 18:22N 37°54' E 023°04'0 0.0
2017-Jun-14 17:49N 37°54' E 023°04'0 0.1
2017-Jun-14 17:28N 37°54' E 023°04'0 0.0
2017-Jun-14 16:58N 37°54' E 023°04'0 0.0
2017-Jun-14 16:28N 37°54' E 023°04'0 0.0
2017-Jun-14 15:37N 37°54' E 023°04'0 0.0
2017-Jun-14 15:28N 37°54' E 023°04'0 0.0
2017-Jun-14 14:34N 37°54' E 023°04'0 0.1
2017-Jun-14 13:58N 37°54' E 023°04'0 0.0
2017-Jun-14 13:28N 37°54' E 023°04'0 0.2
2017-Jun-14 12:58N 37°54' E 023°04'0 0.4
2017-Jun-14 12:30N 37°54' E 023°04'3 6.1
2017-Jun-14 11:58N 37°53' E 023°08'612.8
2017-Jun-14 11:31N 37°52' E 023°15'714.4
2017-Jun-14 11:00N 37°51' E 023°24'612.4
2017-Jun-14 10:30N 37°54' E 023°31'2 3.4
2017-Jun-14 09:59N 37°55' E 023°33'0 0.0
2017-Jun-14 09:29N 37°55' E 023°33'0 0.2
2017-Jun-14 08:59N 37°55' E 023°33'0 0.2
2017-Jun-14 08:29N 37°55' E 023°33'0 0.1
2017-Jun-14 07:59N 37°55' E 023°33'0 0.2
2017-Jun-14 07:29N 37°55' E 023°33'0 0.0
2017-Jun-14 06:59N 37°55' E 023°33'0 0.1
2017-Jun-14 06:29N 37°55' E 023°33'0 0.0
2017-Jun-14 05:59N 37°55' E 023°33'0 0.0
2017-Jun-14 05:29N 37°55' E 023°33'0 0.1
2017-Jun-14 04:59N 37°55' E 023°33'0 0.0
2017-Jun-14 04:29N 37°55' E 023°33'0 0.0
2017-Jun-14 03:59N 37°55' E 023°33'0 0.0
2017-Jun-14 03:29N 37°55' E 023°33'0 0.0
2017-Jun-14 02:59N 37°55' E 023°33'0 0.0
2017-Jun-14 02:29N 37°55' E 023°33'0 0.1
2017-Jun-14 01:59N 37°55' E 023°33'0 0.1
2017-Jun-14 01:29N 37°55' E 023°33'0 0.0
2017-Jun-14 00:59N 37°55' E 023°33'0 0.0
2017-Jun-14 00:29N 37°55' E 023°33'0 0.1
2017-Jun-13 23:59N 37°55' E 023°33'0 0.1
2017-Jun-13 23:29N 37°55' E 023°33'0 0.0
2017-Jun-13 22:59N 37°55' E 023°33'0 0.0
2017-Jun-13 22:29N 37°55' E 023°33'0 0.0
2017-Jun-13 21:59N 37°55' E 023°33'0 0.0
2017-Jun-13 21:29N 37°55' E 023°33'0 0.0
2017-Jun-13 20:59N 37°55' E 023°33'0 0.0
2017-Jun-13 20:29N 37°55' E 023°33'0 0.1
2017-Jun-13 19:59N 37°55' E 023°33'0 0.0
2017-Jun-13 19:29N 37°55' E 023°33'0 0.0
2017-Jun-13 18:59N 37°55' E 023°33'0 0.1
2017-Jun-13 18:29N 37°55' E 023°33'0 0.0
2017-Jun-13 17:59N 37°55' E 023°33'0 0.1
2017-Jun-13 17:29N 37°55' E 023°33'0 0.2
2017-Jun-13 16:59N 37°55' E 023°33'0 0.1
2017-Jun-13 16:29N 37°55' E 023°33'0 0.0
2017-Jun-13 15:59N 37°55' E 023°33'0 0.0
2017-Jun-13 15:29N 37°55' E 023°33'0 0.0
2017-Jun-13 14:59N 37°55' E 023°33'0 0.0
2017-Jun-13 13:59N 37°55' E 023°33'0 0.0
2017-Jun-13 13:29N 37°55' E 023°33'0 0.0
2017-Jun-13 12:59N 37°55' E 023°33'0 0.0
2017-Jun-13 12:29N 37°55' E 023°33'0 0.0
2017-Jun-13 11:59N 37°55' E 023°33'0 0.0
2017-Jun-13 11:29N 37°55' E 023°33'0 0.0
2017-Jun-13 10:59N 37°55' E 023°33'0 0.0
2017-Jun-13 10:29N 37°55' E 023°33'0 0.0
2017-Jun-13 09:59N 37°55' E 023°33'0 0.0
2017-Jun-13 09:29N 37°55' E 023°33'0 0.1
2017-Jun-13 08:59N 37°55' E 023°33'0 0.0
2017-Jun-13 08:29N 37°55' E 023°33'0 0.0
2017-Jun-13 07:59N 37°55' E 023°33'0 0.0
2017-Jun-13 07:29N 37°55' E 023°33'0 0.0
2017-Jun-13 06:59N 37°55' E 023°33'0 0.0
2017-Jun-13 06:29N 37°55' E 023°33'0 0.0
2017-Jun-13 05:59N 37°55' E 023°33'0 0.0
2017-Jun-13 05:29N 37°55' E 023°33'0 0.0
2017-Jun-13 04:58N 37°55' E 023°33'0 0.1
2017-Jun-13 04:28N 37°55' E 023°33'0 0.0
2017-Jun-13 03:58N 37°55' E 023°33'0 0.0
2017-Jun-13 03:28N 37°55' E 023°33'0 0.0
2017-Jun-13 02:58N 37°55' E 023°33'0 0.0
2017-Jun-13 02:28N 37°55' E 023°33'0 0.0
2017-Jun-13 01:58N 37°55' E 023°33'0 0.0
2017-Jun-13 01:28N 37°55' E 023°33'0 0.0
2017-Jun-13 00:58N 37°55' E 023°33'0 0.0
2017-Jun-13 00:28N 37°55' E 023°33'0 0.0
2017-Jun-12 23:58N 37°55' E 023°33'0 0.0
2017-Jun-12 23:28N 37°55' E 023°33'0 0.0
2017-Jun-12 22:58N 37°55' E 023°33'0 0.0
2017-Jun-12 22:28N 37°55' E 023°33'0 0.0
2017-Jun-12 21:58N 37°55' E 023°33'0 0.0
2017-Jun-12 21:28N 37°55' E 023°33'0 0.0
2017-Jun-12 20:58N 37°55' E 023°33'0 0.0
2017-Jun-12 20:25N 37°55' E 023°33'0 0.0
2017-Jun-12 19:58N 37°55' E 023°33'0 0.0
2017-Jun-12 19:28N 37°55' E 023°33'0 0.0
2017-Jun-12 18:58N 37°55' E 023°33'0 0.0
2017-Jun-12 18:28N 37°55' E 023°33'0 0.0
2017-Jun-12 17:58N 37°55' E 023°33'0 0.0
2017-Jun-12 17:28N 37°55' E 023°33'0 0.0
2017-Jun-12 16:58N 37°55' E 023°33'0 0.0
2017-Jun-12 16:28N 37°55' E 023°33'0 0.0
2017-Jun-12 15:58N 37°55' E 023°33'0 0.0
2017-Jun-12 15:28N 37°55' E 023°33'0 0.0
2017-Jun-12 14:58N 37°55' E 023°33'0 0.0
2017-Jun-12 14:28N 37°55' E 023°33'0 0.0
2017-Jun-12 13:28N 37°55' E 023°33'0 0.0
2017-Jun-12 12:58N 37°55' E 023°33'0 0.0
2017-Jun-12 12:28N 37°55' E 023°33'0 0.0
2017-Jun-12 11:58N 37°55' E 023°33'0 0.0
2017-Jun-12 11:28N 37°55' E 023°33'0 0.0
2017-Jun-12 10:58N 37°55' E 023°33'0 0.0
2017-Jun-12 10:28N 37°55' E 023°33'0 0.0
2017-Jun-12 09:58N 37°55' E 023°33'0 0.0
2017-Jun-12 09:28N 37°55' E 023°33'0 0.0
2017-Jun-12 08:58N 37°55' E 023°33'0 0.0
2017-Jun-12 08:28N 37°55' E 023°33'0 0.0
2017-Jun-12 07:58N 37°55' E 023°33'0 0.0
2017-Jun-12 07:28N 37°55' E 023°33'0 0.0
2017-Jun-12 06:58N 37°55' E 023°33'0 0.0
2017-Jun-12 06:28N 37°55' E 023°33'0 0.0
2017-Jun-12 05:58N 37°55' E 023°33'0 0.0
2017-Jun-12 05:28N 37°55' E 023°33'0 0.0
2017-Jun-12 04:58N 37°55' E 023°33'0 0.0
2017-Jun-12 04:28N 37°55' E 023°33'0 0.0
2017-Jun-12 03:58N 37°55' E 023°33'0 0.0
2017-Jun-12 03:28N 37°55' E 023°33'0 0.0
2017-Jun-12 02:58N 37°55' E 023°33'0 0.0
2017-Jun-12 02:28N 37°55' E 023°33'0 0.0
2017-Jun-12 01:58N 37°55' E 023°33'0 0.0
2017-Jun-12 01:28N 37°55' E 023°33'0 0.0
2017-Jun-12 00:58N 37°55' E 023°33'0 0.0
2017-Jun-12 00:28N 37°55' E 023°33'0 0.0
2017-Jun-11 23:58N 37°55' E 023°33'0 0.0
2017-Jun-11 23:28N 37°55' E 023°33'0 0.0
2017-Jun-11 22:58N 37°55' E 023°33'0 0.0
2017-Jun-11 22:28N 37°55' E 023°33'0 0.0
2017-Jun-11 21:58N 37°55' E 023°33'0 0.0
2017-Jun-11 21:28N 37°55' E 023°33'0 0.0
2017-Jun-11 20:58N 37°55' E 023°33'0 0.0
2017-Jun-11 20:28N 37°55' E 023°33'0 0.0
2017-Jun-11 19:58N 37°55' E 023°33'0 0.0
2017-Jun-11 19:28N 37°55' E 023°33'0 0.0
2017-Jun-11 18:58N 37°55' E 023°33'0 0.3
2017-Jun-11 18:28N 37°55' E 023°33'0 0.2
2017-Jun-11 17:58N 37°55' E 023°33'0 0.1
2017-Jun-11 17:28N 37°55' E 023°33'0 0.0
2017-Jun-11 16:58N 37°55' E 023°33'0 0.1
2017-Jun-11 16:31N 37°55' E 023°33'0 0.0
2017-Jun-11 16:01N 37°55' E 023°33'0 0.1
2017-Jun-11 15:27N 37°55' E 023°33'0 0.2
2017-Jun-11 15:00N 37°55' E 023°33'0 0.0
2017-Jun-11 14:00N 37°55' E 023°33'0 0.0
2017-Jun-11 13:30N 37°55' E 023°33'0 0.0
2017-Jun-11 13:00N 37°55' E 023°33'0 0.0
2017-Jun-11 12:30N 37°55' E 023°33'0 0.0
2017-Jun-11 12:00N 37°55' E 023°33'0 0.0
2017-Jun-11 11:30N 37°55' E 023°33'0 0.0
2017-Jun-11 11:00N 37°55' E 023°33'0 0.0
2017-Jun-11 10:30N 37°55' E 023°33'0 0.0
2017-Jun-11 10:00N 37°55' E 023°33'0 0.1
2017-Jun-11 09:30N 37°55' E 023°33'0 0.0
2017-Jun-11 09:00N 37°55' E 023°33'0 0.1
2017-Jun-11 08:30N 37°55' E 023°33'0 0.1
2017-Jun-11 08:00N 37°55' E 023°33'0 0.1
2017-Jun-11 07:30N 37°55' E 023°33'  

Dump ship's entire track history